Champayan — XCTZ5 — position and weather

sailwx.info

Track history (hours):
 
Tides and Currents Weather Stations Pressure Air Temp Water Temp Dewpoint Dewpoint Depression Visibility Wind Speed Wind Dir Waves Ship Positions

Champayan

Last reported at 2018-Jun-14 07:17 UTC. Time now 2018-Jun-19 17:51 UTC.
Position N 19°38' W 096°11'.

Length 33 m; draft 6 m.

Type: Towing. MMSI: 345010070.

Date/timePositionNaut miles runAvg speedWind from/ knotsBaromVisibWave heightAir tempDewpointWater temp
2018-Jun-14 07:17N 19°38' W 096°11'4 7.3
2018-Jun-14 06:41N 19°35' W 096°08'1 7.3
2018-Jun-14 06:30N 19°34' W 096°07'4 7.4
2018-Jun-14 05:59N 19°30' W 096°05'4 7.3
2018-Jun-14 05:30N 19°27' W 096°03'4 7.3
2018-Jun-14 05:00N 19°24' W 096°00'3 6.3
2018-Jun-14 04:29N 19°22' W 096°03'3 6.6
2018-Jun-14 03:59N 19°19' W 096°05'3 6.6
2018-Jun-14 03:30N 19°17' W 096°07'3 6.1
2018-Jun-14 03:00N 19°14' W 096°09'1 2.9
2018-Jun-14 02:30N 19°14' W 096°10'1 2.2
2018-Jun-14 02:00N 19°15' W 096°10'0 0.0
2018-Jun-14 01:30N 19°15' W 096°10'0 0.0
2018-Jun-14 01:00N 19°15' W 096°10'0 0.0
2018-Jun-14 00:30N 19°15' W 096°10'0 0.0
2018-Jun-14 00:00N 19°15' W 096°10'0 0.0
2018-Jun-13 23:30N 19°15' W 096°10'0 0.0
2018-Jun-13 23:00N 19°15' W 096°10'0 0.0
2018-Jun-13 22:30N 19°15' W 096°10'0 0.0
2018-Jun-13 22:00N 19°15' W 096°10'0 0.0
2018-Jun-13 21:30N 19°15' W 096°10'0 0.0
2018-Jun-13 21:00N 19°15' W 096°10'0 0.0
2018-Jun-13 20:30N 19°15' W 096°10'0 0.1
2018-Jun-13 20:00N 19°15' W 096°10'1 2.4
2018-Jun-13 19:30N 19°13' W 096°10'1 2.9
2018-Jun-13 19:00N 19°14' W 096°09'2 3.8
2018-Jun-13 18:30N 19°13' W 096°07'2 3.1
2018-Jun-13 18:00N 19°12' W 096°08'0 0.4
2018-Jun-13 17:30N 19°12' W 096°08'0 0.0
2018-Jun-13 16:59N 19°12' W 096°08'0 0.0
2018-Jun-13 16:30N 19°12' W 096°08'0 0.0
2018-Jun-13 16:00N 19°12' W 096°08'0 0.0
2018-Jun-13 15:29N 19°12' W 096°08'0 0.0
2018-Jun-13 15:00N 19°12' W 096°08'0 0.0
2018-Jun-13 14:30N 19°12' W 096°08'0 0.0
2018-Jun-13 14:00N 19°12' W 096°08'0 0.0
2018-Jun-13 13:30N 19°12' W 096°08'0 0.0
2018-Jun-13 13:00N 19°12' W 096°08'0 0.0
2018-Jun-13 12:30N 19°12' W 096°08'0 0.0
2018-Jun-13 11:59N 19°12' W 096°08'0 0.0
2018-Jun-13 11:30N 19°12' W 096°08'0 0.0
2018-Jun-13 11:00N 19°12' W 096°08'0 0.0
2018-Jun-13 10:30N 19°12' W 096°08'0 0.0
2018-Jun-13 10:00N 19°12' W 096°08'0 0.0
2018-Jun-13 09:30N 19°12' W 096°08'0 0.0
2018-Jun-13 09:00N 19°12' W 096°08'0 0.0
2018-Jun-13 08:30N 19°12' W 096°08'0 0.0
2018-Jun-13 08:00N 19°12' W 096°08'0 0.0
2018-Jun-13 07:30N 19°12' W 096°08'0 0.0
2018-Jun-13 07:00N 19°12' W 096°08'0 0.0
2018-Jun-13 06:30N 19°12' W 096°08'0 0.0
2018-Jun-13 06:00N 19°12' W 096°08'0 0.0
2018-Jun-13 05:30N 19°12' W 096°08'0 0.0
2018-Jun-13 05:00N 19°12' W 096°08'0 0.0
2018-Jun-13 04:29N 19°12' W 096°08'0 0.0
2018-Jun-13 04:00N 19°12' W 096°08'0 0.0
2018-Jun-13 03:30N 19°12' W 096°08'0 0.0
2018-Jun-13 03:00N 19°12' W 096°08'0 0.0
2018-Jun-13 02:28N 19°12' W 096°08'0 0.0
2018-Jun-13 02:00N 19°12' W 096°08'0 0.0
2018-Jun-13 01:30N 19°12' W 096°08'0 0.0
2018-Jun-13 01:00N 19°12' W 096°08'0 0.0
2018-Jun-13 00:30N 19°12' W 096°08'0 0.0
2018-Jun-13 00:00N 19°12' W 096°08'0 0.0
2018-Jun-12 23:30N 19°12' W 096°08'0 0.0
2018-Jun-12 23:00N 19°12' W 096°08'0 0.0
2018-Jun-12 22:30N 19°12' W 096°08'0 0.0
2018-Jun-12 21:58N 19°12' W 096°08'0 0.0
2018-Jun-12 21:30N 19°12' W 096°08'0 0.0
2018-Jun-12 21:00N 19°12' W 096°08'0 0.0
2018-Jun-12 20:30N 19°12' W 096°08'0 0.0
2018-Jun-12 20:00N 19°12' W 096°08'0 0.6
2018-Jun-12 19:30N 19°12' W 096°08'3 6.9
2018-Jun-12 19:00N 19°11' W 096°04'1 2.6
2018-Jun-12 18:29N 19°12' W 096°03'2 4.5
2018-Jun-12 18:00N 19°14' W 096°02'3 5.6
2018-Jun-12 17:30N 19°17' W 096°01'2 4.4
2018-Jun-12 17:00N 19°19' W 096°00'2 4.3
2018-Jun-12 16:30N 19°21' W 095°60'2 4.3
2018-Jun-12 16:00N 19°23' W 096°00'3 5.1
2018-Jun-12 15:30N 19°25' W 095°60'2 4.2
2018-Jun-12 15:00N 19°27' W 096°02'2 4.2
2018-Jun-12 14:30N 19°29' W 096°03'2 4.4
2018-Jun-12 14:00N 19°30' W 096°04'2 4.3
2018-Jun-12 13:28N 19°32' W 096°06'2 4.3
2018-Jun-12 13:00N 19°34' W 096°07'2 4.3
2018-Jun-12 12:30N 19°35' W 096°08'2 4.2
2018-Jun-12 11:58N 19°37' W 096°10'0 0.2
2018-Jun-12 09:42N 19°37' W 096°10'2 6.3
2018-Jun-12 09:27N 19°36' W 096°09'3 6.3
2018-Jun-12 08:58N 19°33' W 096°07'3 6.4
2018-Jun-12 08:30N 19°31' W 096°05'3 6.4
2018-Jun-12 07:59N 19°28' W 096°03'4 6.3
2018-Jun-12 07:22N 19°25' W 096°00'2 4.7
2018-Jun-12 07:00N 19°24' W 096°01'2 4.9
2018-Jun-12 06:30N 19°22' W 096°03'3 5.1
2018-Jun-12 06:00N 19°20' W 096°04'3 5.1
2018-Jun-12 05:30N 19°18' W 096°06'2 4.9
2018-Jun-12 05:00N 19°16' W 096°08'2 4.5
2018-Jun-12 04:30N 19°14' W 096°09'1 1.7
2018-Jun-12 04:00N 19°14' W 096°10'0 0.9
2018-Jun-12 03:30N 19°14' W 096°10'0 0.0
2018-Jun-12 03:00N 19°14' W 096°10'0 0.0
2018-Jun-12 02:30N 19°14' W 096°10'0 0.0
2018-Jun-12 02:00N 19°14' W 096°10'0 0.1
2018-Jun-12 01:30N 19°14' W 096°10'0 0.0
2018-Jun-12 01:00N 19°14' W 096°10'0 0.0
2018-Jun-12 00:30N 19°14' W 096°10'0 0.0
2018-Jun-12 00:00N 19°14' W 096°10'0 0.0
2018-Jun-11 23:30N 19°14' W 096°10'0 0.0
2018-Jun-11 23:00N 19°14' W 096°10'0 0.0
2018-Jun-11 22:30N 19°14' W 096°10'0 0.0
2018-Jun-11 22:00N 19°14' W 096°10'0 0.0
2018-Jun-11 21:29N 19°14' W 096°10'0 0.0
2018-Jun-11 21:00N 19°14' W 096°10'0 0.0
2018-Jun-11 20:30N 19°14' W 096°10'0 0.0
2018-Jun-11 20:00N 19°14' W 096°10'0 0.0
2018-Jun-11 19:30N 19°14' W 096°10'0 0.2
2018-Jun-11 19:00N 19°14' W 096°10'1 2.3
2018-Jun-11 18:27N 19°13' W 096°09'2 4.5
2018-Jun-11 18:00N 19°14' W 096°07'3 6.8
2018-Jun-11 17:30N 19°12' W 096°05'2 4.9
2018-Jun-11 17:00N 19°13' W 096°02'3 6.0
2018-Jun-11 16:29N 19°16' W 096°02'3 6.2
2018-Jun-11 16:00N 19°19' W 096°00'3 6.0
2018-Jun-11 15:30N 19°22' W 096°00'3 5.8
2018-Jun-11 15:00N 19°25' W 096°00'3 5.7
2018-Jun-11 14:30N 19°27' W 096°02'3 5.8
2018-Jun-11 14:00N 19°29' W 096°03'3 5.7
2018-Jun-11 13:28N 19°32' W 096°05'3 5.7
2018-Jun-11 13:00N 19°34' W 096°07'3 5.7
2018-Jun-11 12:28N 19°36' W 096°09'3 5.6
2018-Jun-11 11:58N 19°39' W 096°10'  
Track history (hours):
 
Tides and Currents Weather Stations Pressure Air Temp Water Temp Dewpoint Dewpoint Depression Visibility Wind Speed Wind Dir Waves Ship Positions

Champayan

Last reported at 2018-Jun-14 07:17 UTC. Time now 2018-Jun-19 17:51 UTC.
Position N 19°38' W 096°11'.

Length 33 m; draft 6 m.

Type: Towing. MMSI: 345010070.

Date/timePositionNaut miles runAvg speedWind from/ knotsBaromVisibWave heightAir tempDewpointWater temp
2018-Jun-14 07:17N 19°38' W 096°11'4 7.3
2018-Jun-14 06:41N 19°35' W 096°08'1 7.3
2018-Jun-14 06:30N 19°34' W 096°07'4 7.4
2018-Jun-14 05:59N 19°30' W 096°05'4 7.3
2018-Jun-14 05:30N 19°27' W 096°03'4 7.3
2018-Jun-14 05:00N 19°24' W 096°00'3 6.3
2018-Jun-14 04:29N 19°22' W 096°03'3 6.6
2018-Jun-14 03:59N 19°19' W 096°05'3 6.6
2018-Jun-14 03:30N 19°17' W 096°07'3 6.1
2018-Jun-14 03:00N 19°14' W 096°09'1 2.9
2018-Jun-14 02:30N 19°14' W 096°10'1 2.2
2018-Jun-14 02:00N 19°15' W 096°10'0 0.0
2018-Jun-14 01:30N 19°15' W 096°10'0 0.0
2018-Jun-14 01:00N 19°15' W 096°10'0 0.0
2018-Jun-14 00:30N 19°15' W 096°10'0 0.0
2018-Jun-14 00:00N 19°15' W 096°10'0 0.0
2018-Jun-13 23:30N 19°15' W 096°10'0 0.0
2018-Jun-13 23:00N 19°15' W 096°10'0 0.0
2018-Jun-13 22:30N 19°15' W 096°10'0 0.0
2018-Jun-13 22:00N 19°15' W 096°10'0 0.0
2018-Jun-13 21:30N 19°15' W 096°10'0 0.0
2018-Jun-13 21:00N 19°15' W 096°10'0 0.0
2018-Jun-13 20:30N 19°15' W 096°10'0 0.1
2018-Jun-13 20:00N 19°15' W 096°10'1 2.4
2018-Jun-13 19:30N 19°13' W 096°10'1 2.9
2018-Jun-13 19:00N 19°14' W 096°09'2 3.8
2018-Jun-13 18:30N 19°13' W 096°07'2 3.1
2018-Jun-13 18:00N 19°12' W 096°08'0 0.4
2018-Jun-13 17:30N 19°12' W 096°08'0 0.0
2018-Jun-13 16:59N 19°12' W 096°08'0 0.0
2018-Jun-13 16:30N 19°12' W 096°08'0 0.0
2018-Jun-13 16:00N 19°12' W 096°08'0 0.0
2018-Jun-13 15:29N 19°12' W 096°08'0 0.0
2018-Jun-13 15:00N 19°12' W 096°08'0 0.0
2018-Jun-13 14:30N 19°12' W 096°08'0 0.0
2018-Jun-13 14:00N 19°12' W 096°08'0 0.0
2018-Jun-13 13:30N 19°12' W 096°08'0 0.0
2018-Jun-13 13:00N 19°12' W 096°08'0 0.0
2018-Jun-13 12:30N 19°12' W 096°08'0 0.0
2018-Jun-13 11:59N 19°12' W 096°08'0 0.0
2018-Jun-13 11:30N 19°12' W 096°08'0 0.0
2018-Jun-13 11:00N 19°12' W 096°08'0 0.0
2018-Jun-13 10:30N 19°12' W 096°08'0 0.0
2018-Jun-13 10:00N 19°12' W 096°08'0 0.0
2018-Jun-13 09:30N 19°12' W 096°08'0 0.0
2018-Jun-13 09:00N 19°12' W 096°08'0 0.0
2018-Jun-13 08:30N 19°12' W 096°08'0 0.0
2018-Jun-13 08:00N 19°12' W 096°08'0 0.0
2018-Jun-13 07:30N 19°12' W 096°08'0 0.0
2018-Jun-13 07:00N 19°12' W 096°08'0 0.0
2018-Jun-13 06:30N 19°12' W 096°08'0 0.0
2018-Jun-13 06:00N 19°12' W 096°08'0 0.0
2018-Jun-13 05:30N 19°12' W 096°08'0 0.0
2018-Jun-13 05:00N 19°12' W 096°08'0 0.0
2018-Jun-13 04:29N 19°12' W 096°08'0 0.0
2018-Jun-13 04:00N 19°12' W 096°08'0 0.0
2018-Jun-13 03:30N 19°12' W 096°08'0 0.0
2018-Jun-13 03:00N 19°12' W 096°08'0 0.0
2018-Jun-13 02:28N 19°12' W 096°08'0 0.0
2018-Jun-13 02:00N 19°12' W 096°08'0 0.0
2018-Jun-13 01:30N 19°12' W 096°08'0 0.0
2018-Jun-13 01:00N 19°12' W 096°08'0 0.0
2018-Jun-13 00:30N 19°12' W 096°08'0 0.0
2018-Jun-13 00:00N 19°12' W 096°08'0 0.0
2018-Jun-12 23:30N 19°12' W 096°08'0 0.0
2018-Jun-12 23:00N 19°12' W 096°08'0 0.0
2018-Jun-12 22:30N 19°12' W 096°08'0 0.0
2018-Jun-12 21:58N 19°12' W 096°08'0 0.0
2018-Jun-12 21:30N 19°12' W 096°08'0 0.0
2018-Jun-12 21:00N 19°12' W 096°08'0 0.0
2018-Jun-12 20:30N 19°12' W 096°08'0 0.0
2018-Jun-12 20:00N 19°12' W 096°08'0 0.6
2018-Jun-12 19:30N 19°12' W 096°08'3 6.9
2018-Jun-12 19:00N 19°11' W 096°04'1 2.6
2018-Jun-12 18:29N 19°12' W 096°03'2 4.5
2018-Jun-12 18:00N 19°14' W 096°02'3 5.6
2018-Jun-12 17:30N 19°17' W 096°01'2 4.4
2018-Jun-12 17:00N 19°19' W 096°00'2 4.3
2018-Jun-12 16:30N 19°21' W 095°60'2 4.3
2018-Jun-12 16:00N 19°23' W 096°00'3 5.1
2018-Jun-12 15:30N 19°25' W 095°60'2 4.2
2018-Jun-12 15:00N 19°27' W 096°02'2 4.2
2018-Jun-12 14:30N 19°29' W 096°03'2 4.4
2018-Jun-12 14:00N 19°30' W 096°04'2 4.3
2018-Jun-12 13:28N 19°32' W 096°06'2 4.3
2018-Jun-12 13:00N 19°34' W 096°07'2 4.3
2018-Jun-12 12:30N 19°35' W 096°08'2 4.2
2018-Jun-12 11:58N 19°37' W 096°10'0 0.2
2018-Jun-12 09:42N 19°37' W 096°10'2 6.3
2018-Jun-12 09:27N 19°36' W 096°09'3 6.3
2018-Jun-12 08:58N 19°33' W 096°07'3 6.4
2018-Jun-12 08:30N 19°31' W 096°05'3 6.4
2018-Jun-12 07:59N 19°28' W 096°03'4 6.3
2018-Jun-12 07:22N 19°25' W 096°00'2 4.7
2018-Jun-12 07:00N 19°24' W 096°01'2 4.9
2018-Jun-12 06:30N 19°22' W 096°03'3 5.1
2018-Jun-12 06:00N 19°20' W 096°04'3 5.1
2018-Jun-12 05:30N 19°18' W 096°06'2 4.9
2018-Jun-12 05:00N 19°16' W 096°08'2 4.5
2018-Jun-12 04:30N 19°14' W 096°09'1 1.7
2018-Jun-12 04:00N 19°14' W 096°10'0 0.9
2018-Jun-12 03:30N 19°14' W 096°10'0 0.0
2018-Jun-12 03:00N 19°14' W 096°10'0 0.0
2018-Jun-12 02:30N 19°14' W 096°10'0 0.0
2018-Jun-12 02:00N 19°14' W 096°10'0 0.1
2018-Jun-12 01:30N 19°14' W 096°10'0 0.0
2018-Jun-12 01:00N 19°14' W 096°10'0 0.0
2018-Jun-12 00:30N 19°14' W 096°10'0 0.0
2018-Jun-12 00:00N 19°14' W 096°10'0 0.0
2018-Jun-11 23:30N 19°14' W 096°10'0 0.0
2018-Jun-11 23:00N 19°14' W 096°10'0 0.0
2018-Jun-11 22:30N 19°14' W 096°10'0 0.0
2018-Jun-11 22:00N 19°14' W 096°10'0 0.0
2018-Jun-11 21:29N 19°14' W 096°10'0 0.0
2018-Jun-11 21:00N 19°14' W 096°10'0 0.0
2018-Jun-11 20:30N 19°14' W 096°10'0 0.0
2018-Jun-11 20:00N 19°14' W 096°10'0 0.0
2018-Jun-11 19:30N 19°14' W 096°10'0 0.2
2018-Jun-11 19:00N 19°14' W 096°10'1 2.3
2018-Jun-11 18:27N 19°13' W 096°09'2 4.5
2018-Jun-11 18:00N 19°14' W 096°07'3 6.8
2018-Jun-11 17:30N 19°12' W 096°05'2 4.9
2018-Jun-11 17:00N 19°13' W 096°02'3 6.0
2018-Jun-11 16:29N 19°16' W 096°02'3 6.2
2018-Jun-11 16:00N 19°19' W 096°00'3 6.0
2018-Jun-11 15:30N 19°22' W 096°00'3 5.8
2018-Jun-11 15:00N 19°25' W 096°00'3 5.7
2018-Jun-11 14:30N 19°27' W 096°02'3 5.8
2018-Jun-11 14:00N 19°29' W 096°03'3 5.7
2018-Jun-11 13:28N 19°32' W 096°05'3 5.7
2018-Jun-11 13:00N 19°34' W 096°07'3 5.7
2018-Jun-11 12:28N 19°36' W 096°09'3 5.6
2018-Jun-11 11:58N 19°39' W 096°10'  

Dump ship's entire track history